createdAt,value
2023-05-19T00:02:09.154Z,102099.09
2023-05-19T00:04:54.831Z,102092.03
2023-05-19T00:07:40.249Z,102101.81
2023-05-19T00:10:30.372Z,102105.19
2023-05-19T00:13:15.905Z,102100.03
2023-05-19T00:16:01.175Z,102105.19
2023-05-19T00:18:47.480Z,102097.13
2023-05-19T00:21:32.822Z,102100.66
2023-05-19T00:24:17.884Z,102104.06
2023-05-19T00:27:02.803Z,102099.63
2023-05-19T00:29:47.803Z,102102.84
2023-05-19T00:32:32.630Z,102094.06
2023-05-19T00:35:18.241Z,102099.59
2023-05-19T00:38:03.426Z,102095.09
2023-05-19T00:40:48.371Z,102103.81
2023-05-19T00:43:36.499Z,102093.38
2023-05-19T00:46:22.857Z,102088.03
2023-05-19T00:49:08.219Z,102098.09
2023-05-19T00:51:54.384Z,102085.03
2023-05-19T00:54:39.412Z,102086.41
2023-05-19T00:57:24.421Z,102083.72
2023-05-19T01:00:11.190Z,102081.16
2023-05-19T01:02:56.986Z,102080.00
2023-05-19T01:05:45.064Z,102088.81
2023-05-19T01:08:33.920Z,102079.38
2023-05-19T01:11:19.028Z,102085.22
2023-05-19T01:14:03.904Z,102080.13
2023-05-19T01:16:58.264Z,102085.63
2023-05-19T01:20:12.331Z,102082.97
2023-05-19T01:23:16.691Z,102082.09
2023-05-19T01:26:16.407Z,102081.59
2023-05-19T01:29:24.711Z,102081.75
2023-05-19T01:32:12.166Z,102078.28
2023-05-19T01:34:58.147Z,102086.88
2023-05-19T01:37:45.267Z,102086.94
2023-05-19T01:40:31.618Z,102083.44
2023-05-19T01:43:19.689Z,102079.94
2023-05-19T01:46:05.543Z,102086.13
2023-05-19T01:48:52.552Z,102091.31
2023-05-19T01:51:38.314Z,102085.31
2023-05-19T01:54:23.738Z,102091.41
2023-05-19T01:57:38.359Z,102087.88
2023-05-19T02:00:54.035Z,102093.16
2023-05-19T02:04:00.716Z,102092.28
2023-05-19T02:07:01.583Z,102090.56
2023-05-19T02:10:04.249Z,102081.81
2023-05-19T02:12:53.180Z,102082.66
2023-05-19T02:15:42.122Z,102080.56
2023-05-19T02:18:29.830Z,102077.34
2023-05-19T02:21:14.940Z,102079.03
2023-05-19T02:24:01.284Z,102074.88
2023-05-19T02:26:46.413Z,102079.09
2023-05-19T02:29:35.439Z,102079.13
2023-05-19T02:32:21.104Z,102073.94
2023-05-19T02:35:06.714Z,102071.97
2023-05-19T02:37:51.571Z,102076.34
2023-05-19T02:40:36.342Z,102076.25
2023-05-19T02:43:21.262Z,102079.69
2023-05-19T02:46:06.398Z,102074.41
2023-05-19T02:48:52.113Z,102078.97
2023-05-19T02:51:37.522Z,102074.56
2023-05-19T02:54:22.341Z,102072.66
2023-05-19T02:57:08.009Z,102071.78
2023-05-19T02:59:52.753Z,102074.53
2023-05-19T03:02:37.727Z,102060.63
2023-05-19T03:05:22.994Z,102069.53
2023-05-19T03:08:07.937Z,102070.59
2023-05-19T03:10:53.115Z,102074.94
2023-05-19T03:13:37.828Z,102074.91
2023-05-19T03:16:22.810Z,102069.56
2023-05-19T03:19:08.077Z,102072.28
2023-05-19T03:21:53.086Z,102066.28
2023-05-19T03:24:37.947Z,102065.41
2023-05-19T03:27:23.257Z,102063.66
2023-05-19T03:30:08.989Z,102061.06
2023-05-19T03:32:54.170Z,102060.09
2023-05-19T03:35:39.824Z,102064.53
2023-05-19T03:38:24.957Z,102065.34
2023-05-19T03:41:10.486Z,102076.72
2023-05-19T03:43:55.320Z,102072.34
2023-05-19T03:46:40.759Z,102068.00
2023-05-19T03:49:25.605Z,102072.31
2023-05-19T03:52:10.890Z,102073.22
2023-05-19T03:54:57.530Z,102072.31
2023-05-19T03:57:44.578Z,102068.88
2023-05-19T04:00:29.877Z,102067.94
2023-05-19T04:03:15.269Z,102078.22
2023-05-19T04:06:00.429Z,102075.69
2023-05-19T04:08:45.307Z,102070.50
2023-05-19T04:11:29.982Z,102081.84
2023-05-19T04:14:14.753Z,102074.66
2023-05-19T04:16:59.885Z,102076.44
2023-05-19T04:19:45.469Z,102072.94
2023-05-19T04:22:30.288Z,102069.44
2023-05-19T04:25:15.463Z,102070.28
2023-05-19T04:28:01.281Z,102071.28
2023-05-19T04:30:46.580Z,102069.38
2023-05-19T04:33:33.898Z,102068.44
2023-05-19T04:36:21.344Z,102074.63
2023-05-19T04:39:12.536Z,102073.94
2023-05-19T04:41:57.638Z,102077.50
2023-05-19T04:44:42.445Z,102082.72
2023-05-19T04:47:27.997Z,102083.63
2023-05-19T04:50:14.152Z,102077.41
2023-05-19T04:52:59.263Z,102080.91
2023-05-19T04:55:45.212Z,102071.13
2023-05-19T04:58:30.450Z,102079.00
2023-05-19T05:01:15.735Z,102078.09
2023-05-19T05:04:02.984Z,102077.91
2023-05-19T05:06:48.734Z,102088.66
2023-05-19T05:09:34.152Z,102084.41
2023-05-19T05:12:19.809Z,102090.50
2023-05-19T05:15:06.861Z,102094.03
2023-05-19T05:17:52.187Z,102099.19
2023-05-19T05:20:37.743Z,102089.44
2023-05-19T05:23:22.741Z,102093.81
2023-05-19T05:26:18.701Z,102095.50
2023-05-19T05:29:04.311Z,102091.13
2023-05-19T05:31:49.517Z,102095.38
2023-05-19T05:34:36.299Z,102086.75
2023-05-19T05:37:21.367Z,102091.88
2023-05-19T05:40:07.323Z,102089.09
2023-05-19T05:42:52.296Z,102086.41
2023-05-19T05:45:38.192Z,102079.41
2023-05-19T05:48:23.226Z,102080.47
2023-05-19T05:51:09.297Z,102078.59
2023-05-19T05:53:55.896Z,102077.63
2023-05-19T05:56:42.687Z,102074.25
2023-05-19T05:59:28.029Z,102078.56
2023-05-19T06:02:14.023Z,102075.91
2023-05-19T06:04:59.325Z,102078.59
2023-05-19T06:07:46.573Z,102074.06
2023-05-19T06:10:32.756Z,102066.00
2023-05-19T06:13:22.847Z,102077.97
2023-05-19T06:16:08.009Z,102076.16
2023-05-19T06:18:52.899Z,102076.09
2023-05-19T06:21:38.153Z,102069.09
2023-05-19T06:24:23.102Z,102083.28
2023-05-19T06:27:08.357Z,102075.25
2023-05-19T06:29:53.797Z,102074.22
2023-05-19T06:32:39.314Z,102076.56
2023-05-19T06:35:24.804Z,102085.69
2023-05-19T06:38:10.393Z,102081.31
2023-05-19T06:40:55.524Z,102082.72
2023-05-19T06:43:40.388Z,102083.25
2023-05-19T06:46:25.199Z,102081.44
2023-05-19T06:49:11.294Z,102076.72
2023-05-19T06:51:57.485Z,102081.50
2023-05-19T06:54:42.393Z,102074.50
2023-05-19T06:57:27.491Z,102080.19
2023-05-19T07:00:14.614Z,102069.75
2023-05-19T07:03:02.505Z,102076.19
2023-05-19T07:05:47.859Z,102077.53
2023-05-19T07:08:32.746Z,102084.81
2023-05-19T07:11:17.872Z,102081.88
2023-05-19T07:14:03.046Z,102070.69
2023-05-19T07:16:47.985Z,102073.28
2023-05-19T07:19:33.108Z,102070.53
2023-05-19T07:22:18.215Z,102063.38
2023-05-19T07:25:03.779Z,102061.44
2023-05-19T07:27:49.552Z,102070.31
2023-05-19T07:30:34.886Z,102071.56
2023-05-19T07:33:20.667Z,102069.88
2023-05-19T07:36:05.903Z,102075.78
2023-05-19T07:38:51.547Z,102069.09
2023-05-19T07:41:36.732Z,102064.03
2023-05-19T07:44:22.614Z,102069.72
2023-05-19T07:47:07.734Z,102067.84
2023-05-19T07:49:52.859Z,102065.31
2023-05-19T07:52:37.766Z,102058.09
2023-05-19T07:55:33.512Z,102059.28
2023-05-19T07:58:19.703Z,102059.00
2023-05-19T08:01:05.856Z,102051.06
2023-05-19T08:03:51.339Z,102054.03
2023-05-19T08:06:36.244Z,102045.91
2023-05-19T08:09:21.215Z,102051.31
2023-05-19T08:12:06.088Z,102051.91
2023-05-19T08:14:51.254Z,102055.25
2023-05-19T08:17:36.577Z,102049.56
2023-05-19T08:20:22.737Z,102051.81
2023-05-19T08:23:07.917Z,102056.75
2023-05-19T08:25:52.784Z,102055.31
2023-05-19T08:28:37.763Z,102057.75
2023-05-19T08:31:22.672Z,102050.53
2023-05-19T08:34:07.845Z,102046.13
2023-05-19T08:36:53.386Z,102044.09
2023-05-19T08:39:38.613Z,102043.03
2023-05-19T08:42:23.677Z,102043.03
2023-05-19T08:45:09.383Z,102046.06
2023-05-19T08:47:54.712Z,102034.03
2023-05-19T08:50:44.315Z,102031.38
2023-05-19T08:53:36.714Z,102024.78
2023-05-19T08:56:24.121Z,102023.78
2023-05-19T08:59:09.188Z,102022.25
2023-05-19T09:01:55.596Z,102022.19
2023-05-19T09:04:41.886Z,102016.09
2023-05-19T09:07:27.851Z,102015.50
2023-05-19T09:10:14.743Z,102013.53
2023-05-19T09:13:00.133Z,102004.66
2023-05-19T09:15:45.851Z,102001.25
2023-05-19T09:18:31.377Z,102007.72
2023-05-19T09:21:17.050Z,102005.94
2023-05-19T09:24:06.360Z,102004.03
2023-05-19T09:26:51.448Z,102002.75
2023-05-19T09:29:36.423Z,102002.53
2023-05-19T09:32:27.613Z,102005.59
2023-05-19T09:35:13.660Z,102002.72
2023-05-19T09:37:59.068Z,102002.38
2023-05-19T09:40:44.032Z,101996.56
2023-05-19T09:43:36.374Z,101991.22
2023-05-19T09:46:28.745Z,101989.44
2023-05-19T09:49:14.279Z,101987.75
2023-05-19T09:52:03.598Z,101985.38
2023-05-19T09:54:48.782Z,101982.09
2023-05-19T09:57:38.600Z,101986.63
2023-05-19T10:00:23.873Z,101978.59
2023-05-19T10:03:10.330Z,101976.31
2023-05-19T10:05:55.678Z,101963.47
2023-05-19T10:08:43.306Z,101960.50
2023-05-19T10:11:30.071Z,101964.03
2023-05-19T10:14:15.791Z,101963.94
2023-05-19T10:17:00.747Z,101948.19
2023-05-19T10:19:48.196Z,101952.97
2023-05-19T10:22:34.861Z,101954.31
2023-05-19T10:25:20.083Z,101946.00
2023-05-19T10:28:11.375Z,101952.34
2023-05-19T10:31:00.323Z,101953.78
2023-05-19T10:33:59.358Z,101950.03
2023-05-19T10:37:18.225Z,101947.22
2023-05-19T10:40:20.000Z,101947.41
2023-05-19T10:43:33.133Z,101948.53
2023-05-19T10:46:19.320Z,101941.94
2023-05-19T10:49:04.229Z,101944.34
2023-05-19T10:51:49.794Z,101934.16
2023-05-19T10:54:47.377Z,101926.75
2023-05-19T10:57:34.584Z,101920.38
2023-05-19T11:00:30.143Z,101918.56
2023-05-19T11:03:17.666Z,101930.78
2023-05-19T11:06:36.044Z,101925.09
2023-05-19T11:09:37.855Z,101927.53
2023-05-19T11:12:25.488Z,101923.88
2023-05-19T11:15:13.813Z,101924.31
2023-05-19T11:18:01.693Z,101921.84
2023-05-19T11:20:57.953Z,101925.09
2023-05-19T11:23:43.982Z,101912.88
2023-05-19T11:26:45.942Z,101911.94
2023-05-19T11:29:32.861Z,101914.47
2023-05-19T11:32:26.628Z,101905.50
2023-05-19T11:35:11.600Z,101914.00
2023-05-19T11:37:57.508Z,101918.31
2023-05-19T11:40:43.410Z,101923.38
2023-05-19T11:43:28.557Z,101917.66
2023-05-19T11:46:13.883Z,101915.53
2023-05-19T11:49:01.325Z,101923.13
2023-05-19T11:51:46.860Z,101909.44
2023-05-19T11:54:36.702Z,101906.50
2023-05-19T11:57:22.415Z,101900.63
2023-05-19T12:00:09.334Z,101903.94
2023-05-19T12:02:55.042Z,101897.13
2023-05-19T12:05:47.756Z,101901.19
2023-05-19T12:08:33.182Z,101891.88
2023-05-19T12:11:20.053Z,101898.50
2023-05-19T12:14:05.861Z,101893.53
2023-05-19T12:16:50.853Z,101885.47
2023-05-19T12:19:36.799Z,101880.28
2023-05-19T12:22:22.451Z,101880.75
2023-05-19T12:25:08.531Z,101892.78
2023-05-19T12:28:02.921Z,101883.03
2023-05-19T12:30:51.916Z,101875.66
2023-05-19T12:33:37.454Z,101863.88
2023-05-19T12:36:24.291Z,101861.97
2023-05-19T12:39:10.064Z,101864.34
2023-05-19T12:42:04.490Z,101872.28
2023-05-19T12:44:52.334Z,101874.34
2023-05-19T12:47:37.209Z,101859.19
2023-05-19T12:50:29.766Z,101872.19
2023-05-19T12:53:15.709Z,101864.31
2023-05-19T12:56:00.893Z,101864.91
2023-05-19T12:58:46.104Z,101864.97
2023-05-19T13:01:31.584Z,101866.03
2023-05-19T13:04:17.424Z,101864.69
2023-05-19T13:07:02.574Z,101860.19
2023-05-19T13:09:48.226Z,101860.91
2023-05-19T13:12:33.524Z,101860.03
2023-05-19T13:15:19.082Z,101865.13
2023-05-19T13:18:07.167Z,101857.81
2023-05-19T13:20:52.990Z,101858.84
2023-05-19T13:23:38.417Z,101862.69
2023-05-19T13:26:23.596Z,101855.16
2023-05-19T13:29:12.257Z,101854.41
2023-05-19T13:31:58.109Z,101846.91
2023-05-19T13:34:46.712Z,101846.56
2023-05-19T13:37:31.596Z,101857.16
2023-05-19T13:40:17.757Z,101843.69
2023-05-19T13:43:03.482Z,101849.56
2023-05-19T13:45:48.948Z,101855.75
2023-05-19T13:48:33.713Z,101847.22
2023-05-19T13:51:18.662Z,101846.63
2023-05-19T13:54:03.425Z,101842.81
2023-05-19T13:56:49.648Z,101841.81
2023-05-19T13:59:36.023Z,101838.56
2023-05-19T14:02:24.252Z,101836.41
2023-05-19T14:05:10.257Z,101835.25
2023-05-19T14:07:55.411Z,101830.53
2023-05-19T14:10:40.318Z,101835.75
2023-05-19T14:13:33.059Z,101830.50
2023-05-19T14:16:22.806Z,101835.47
2023-05-19T14:19:08.153Z,101824.88
2023-05-19T14:21:53.021Z,101829.09
2023-05-19T14:24:37.988Z,101833.94
2023-05-19T14:27:22.829Z,101833.47
2023-05-19T14:30:08.860Z,101827.13
2023-05-19T14:32:54.357Z,101816.72
2023-05-19T14:35:41.062Z,101824.06
2023-05-19T14:38:27.622Z,101822.31
2023-05-19T14:41:13.551Z,101811.88
2023-05-19T14:43:58.501Z,101806.00
2023-05-19T14:46:43.787Z,101813.78
2023-05-19T14:49:28.542Z,101801.00
2023-05-19T14:52:13.631Z,101808.03
2023-05-19T14:54:58.548Z,101810.06
2023-05-19T14:57:43.862Z,101806.34
2023-05-19T15:00:31.622Z,101814.34
2023-05-19T15:03:17.472Z,101814.66
2023-05-19T15:06:02.956Z,101818.78
2023-05-19T15:08:47.844Z,101813.28
2023-05-19T15:11:33.165Z,101818.03
2023-05-19T15:14:18.072Z,101816.72
2023-05-19T15:17:03.088Z,101814.34
2023-05-19T15:19:48.625Z,101805.19
2023-05-19T15:22:34.034Z,101809.38
2023-05-19T15:25:18.984Z,101810.72
2023-05-19T15:28:04.228Z,101804.19
2023-05-19T15:30:49.266Z,101810.94
2023-05-19T15:33:34.804Z,101801.91
2023-05-19T15:36:19.872Z,101803.16
2023-05-19T15:39:06.744Z,101809.63
2023-05-19T15:41:51.793Z,101805.50
2023-05-19T15:44:36.710Z,101807.75
2023-05-19T15:47:21.800Z,101798.66
2023-05-19T15:50:08.814Z,101804.81
2023-05-19T15:52:56.750Z,101802.88
2023-05-19T15:55:44.553Z,101799.28
2023-05-19T15:58:41.336Z,101799.53
2023-05-19T16:01:35.238Z,101793.94
2023-05-19T16:04:22.780Z,101801.97
2023-05-19T16:07:08.707Z,101798.41
2023-05-19T16:09:53.803Z,101796.78
2023-05-19T16:12:39.966Z,101799.22
2023-05-19T16:15:27.318Z,101787.56
2023-05-19T16:18:16.014Z,101790.63
2023-05-19T16:21:01.676Z,101782.16
2023-05-19T16:23:46.560Z,101785.72
2023-05-19T16:26:37.058Z,101780.91
2023-05-19T16:29:22.608Z,101778.19
2023-05-19T16:32:07.750Z,101778.63
2023-05-19T16:34:54.119Z,101781.34
2023-05-19T16:37:39.330Z,101776.59
2023-05-19T16:40:33.785Z,101778.25
2023-05-19T16:46:24.014Z,101785.88
2023-05-19T16:49:12.869Z,101770.00
2023-05-19T16:51:57.966Z,101766.88
2023-05-19T16:54:42.984Z,101771.97
2023-05-19T16:57:28.798Z,101769.38
2023-05-19T17:00:14.414Z,101775.22
2023-05-19T17:02:59.639Z,101773.97
2023-05-19T17:05:44.781Z,101781.25
2023-05-19T17:08:29.824Z,101777.13
2023-05-19T17:11:15.075Z,101771.44
2023-05-19T17:13:59.927Z,101784.34
2023-05-19T17:16:44.785Z,101778.13
2023-05-19T17:19:29.679Z,101782.03
2023-05-19T17:22:15.121Z,101787.31
2023-05-19T17:24:59.916Z,101788.91
2023-05-19T17:27:44.947Z,101792.56
2023-05-19T17:30:30.295Z,101800.66
2023-05-19T17:33:15.495Z,101796.00
2023-05-19T17:36:03.715Z,101798.91
2023-05-19T17:38:52.090Z,101791.19
2023-05-19T17:41:37.002Z,101799.16
2023-05-19T17:44:21.878Z,101803.13
2023-05-19T17:47:07.981Z,101802.69
2023-05-19T17:49:55.505Z,101797.75
2023-05-19T17:52:42.929Z,101797.63
2023-05-19T17:55:30.226Z,101798.63
2023-05-19T17:58:15.529Z,101803.69
2023-05-19T18:01:00.829Z,101800.22
2023-05-19T18:03:50.146Z,101800.94
2023-05-19T18:06:39.251Z,101801.22
2023-05-19T18:09:28.581Z,101798.91
2023-05-19T18:12:14.696Z,101800.38
2023-05-19T18:15:01.292Z,101791.66
2023-05-19T18:17:46.281Z,101787.88
2023-05-19T18:20:33.097Z,101789.69
2023-05-19T18:23:19.381Z,101794.03
2023-05-19T18:26:10.613Z,101799.69
2023-05-19T18:28:59.755Z,101802.16
2023-05-19T18:31:45.673Z,101795.59
2023-05-19T18:34:30.674Z,101795.13
2023-05-19T18:37:15.552Z,101798.50
2023-05-19T18:40:01.385Z,101802.47
2023-05-19T18:42:49.131Z,101793.97
2023-05-19T18:45:33.998Z,101796.78
2023-05-19T18:48:22.112Z,101804.91
2023-05-19T18:51:08.347Z,101808.31
2023-05-19T18:53:57.587Z,101809.50
2023-05-19T18:56:43.351Z,101813.06
2023-05-19T18:59:31.435Z,101818.00
2023-05-19T19:02:18.481Z,101816.91
2023-05-19T19:05:08.254Z,101811.97
2023-05-19T19:07:53.947Z,101816.22
2023-05-19T19:10:43.846Z,101818.19
2023-05-19T19:13:30.746Z,101828.75
2023-05-19T19:16:16.516Z,101821.09
2023-05-19T19:19:03.693Z,101826.63
2023-05-19T19:21:51.219Z,101827.50
2023-05-19T19:24:36.974Z,101831.75
2023-05-19T19:27:21.976Z,101838.66
2023-05-19T19:30:08.646Z,101835.25
2023-05-19T19:32:55.560Z,101831.03
2023-05-19T19:35:41.142Z,101839.03
2023-05-19T19:38:26.856Z,101836.66
2023-05-19T19:41:11.839Z,101841.25
2023-05-19T19:43:57.415Z,101841.44
2023-05-19T19:46:42.397Z,101839.91
2023-05-19T19:49:27.245Z,101844.53
2023-05-19T19:52:12.182Z,101846.44
2023-05-19T19:55:01.464Z,101843.16
2023-05-19T19:57:51.549Z,101856.28
2023-05-19T20:00:36.782Z,101855.38
2023-05-19T20:03:22.189Z,101853.78
2023-05-19T20:06:07.955Z,101857.41
2023-05-19T20:08:53.515Z,101862.00
2023-05-19T20:11:38.683Z,101864.63
2023-05-19T20:14:23.896Z,101863.19
2023-05-19T20:17:09.263Z,101868.34
2023-05-19T20:19:54.701Z,101869.19
2023-05-19T20:22:40.351Z,101864.09
2023-05-19T20:25:26.282Z,101865.38
2023-05-19T20:28:11.546Z,101869.59
2023-05-19T20:30:57.007Z,101872.69
2023-05-19T20:33:41.740Z,101867.19
2023-05-19T20:36:26.665Z,101869.13
2023-05-19T20:39:11.716Z,101874.50
2023-05-19T20:41:56.707Z,101871.69
2023-05-19T20:44:41.563Z,101873.63
2023-05-19T20:47:30.302Z,101879.78
2023-05-19T20:50:15.960Z,101882.41
2023-05-19T20:53:01.572Z,101893.06
2023-05-19T20:55:46.915Z,101887.09
2023-05-19T20:58:31.977Z,101889.72
2023-05-19T21:01:17.023Z,101898.50
2023-05-19T21:04:07.009Z,101894.00
2023-05-19T21:06:52.301Z,101897.75
2023-05-19T21:09:39.156Z,101898.50
2023-05-19T21:12:35.981Z,101898.81
2023-05-19T21:15:21.961Z,101896.88
2023-05-19T21:18:17.070Z,101901.31
2023-05-19T21:21:04.863Z,101892.63
2023-05-19T21:23:54.014Z,101892.59
2023-05-19T21:26:44.304Z,101890.19
2023-05-19T21:29:29.154Z,101891.13
2023-05-19T21:32:15.933Z,101899.09
2023-05-19T21:35:03.919Z,101895.47
2023-05-19T21:37:50.282Z,101903.34
2023-05-19T21:40:36.344Z,101905.09
2023-05-19T21:43:30.611Z,101902.47
2023-05-19T21:46:16.480Z,101903.44
2023-05-19T21:49:01.420Z,101901.97
2023-05-19T21:51:46.333Z,101902.78
2023-05-19T21:54:31.330Z,101897.53
2023-05-19T21:57:18.019Z,101905.44
2023-05-19T22:00:03.581Z,101911.72
2023-05-19T22:02:48.475Z,101909.34
2023-05-19T22:05:35.608Z,101917.28
2023-05-19T22:08:22.313Z,101921.88
2023-05-19T22:11:08.211Z,101926.38
2023-05-19T22:13:54.691Z,101926.38
2023-05-19T22:16:39.704Z,101932.53
2023-05-19T22:19:25.185Z,101924.88
2023-05-19T22:22:14.086Z,101927.03
2023-05-19T22:24:59.696Z,101928.75
2023-05-19T22:27:45.119Z,101929.91
2023-05-19T22:30:30.660Z,101933.16
2023-05-19T22:33:15.802Z,101936.72
2023-05-19T22:36:00.678Z,101933.31
2023-05-19T22:38:45.745Z,101931.63
2023-05-19T22:41:31.399Z,101929.00
2023-05-19T22:44:17.454Z,101927.16
2023-05-19T22:47:02.564Z,101929.63
2023-05-19T22:49:49.964Z,101929.84
2023-05-19T22:52:35.207Z,101922.81
2023-05-19T22:55:20.285Z,101927.47
2023-05-19T22:58:06.619Z,101917.97
2023-05-19T23:00:51.507Z,101927.38
2023-05-19T23:03:36.709Z,101924.88
2023-05-19T23:06:22.120Z,101928.28
2023-05-19T23:09:09.199Z,101931.94
2023-05-19T23:11:54.539Z,101931.09
2023-05-19T23:14:39.716Z,101925.84
2023-05-19T23:17:25.488Z,101933.97
2023-05-19T23:20:12.848Z,101931.44
2023-05-19T23:22:57.852Z,101937.50
2023-05-19T23:25:42.811Z,101936.50
2023-05-19T23:28:27.753Z,101935.91
2023-05-19T23:31:12.963Z,101938.25
2023-05-19T23:33:58.040Z,101934.91
2023-05-19T23:36:43.967Z,101921.84
2023-05-19T23:39:28.723Z,101921.06
2023-05-19T23:42:13.607Z,101924.53
2023-05-19T23:44:59.109Z,101931.50
2023-05-19T23:47:43.877Z,101931.66
2023-05-19T23:50:28.818Z,101930.81
2023-05-19T23:53:14.025Z,101937.06
2023-05-19T23:55:58.882Z,101923.84
2023-05-19T23:58:44.889Z,101924.66
